sensor_id;sensor_type;location;lat;lon;timestamp;temperature;humidity
20315;DHT22;10315;50.958;13.080;2022-07-15T00:08:29;11.90;99.90
20315;DHT22;10315;50.958;13.080;2022-07-15T00:18:32;11.50;99.90
20315;DHT22;10315;50.958;13.080;2022-07-15T00:28:34;11.20;99.90
20315;DHT22;10315;50.958;13.080;2022-07-15T00:38:37;10.60;99.90
20315;DHT22;10315;50.958;13.080;2022-07-15T00:48:39;10.30;99.90
20315;DHT22;10315;50.958;13.080;2022-07-15T00:58:43;10.60;99.90
20315;DHT22;10315;50.958;13.080;2022-07-15T01:08:45;10.30;99.90
20315;DHT22;10315;50.958;13.080;2022-07-15T01:18:48;10.10;99.90
20315;DHT22;10315;50.958;13.080;2022-07-15T01:28:51;10.00;99.90
20315;DHT22;10315;50.958;13.080;2022-07-15T01:38:52;9.60;99.90
20315;DHT22;10315;50.958;13.080;2022-07-15T01:48:56;9.80;99.90
20315;DHT22;10315;50.958;13.080;2022-07-15T01:59:16;9.50;99.90
20315;DHT22;10315;50.958;13.080;2022-07-15T02:09:19;9.10;99.90
20315;DHT22;10315;50.958;13.080;2022-07-15T02:19:21;9.40;99.90
20315;DHT22;10315;50.958;13.080;2022-07-15T02:29:24;9.60;99.90
20315;DHT22;10315;50.958;13.080;2022-07-15T02:39:25;9.80;99.90
20315;DHT22;10315;50.958;13.080;2022-07-15T02:49:28;9.50;99.90
20315;DHT22;10315;50.958;13.080;2022-07-15T02:59:30;8.90;99.90
20315;DHT22;10315;50.958;13.080;2022-07-15T03:09:33;8.90;99.90
20315;DHT22;10315;50.958;13.080;2022-07-15T03:19:35;8.80;99.90
20315;DHT22;10315;50.958;13.080;2022-07-15T03:29:38;9.00;99.90
20315;DHT22;10315;50.958;13.080;2022-07-15T03:39:39;9.00;99.90
20315;DHT22;10315;50.958;13.080;2022-07-15T03:49:42;9.30;99.90
20315;DHT22;10315;50.958;13.080;2022-07-15T03:59:44;9.90;99.90
20315;DHT22;10315;50.958;13.080;2022-07-15T04:09:47;10.20;99.90
20315;DHT22;10315;50.958;13.080;2022-07-15T04:19:49;10.40;99.90
20315;DHT22;10315;50.958;13.080;2022-07-15T04:29:52;11.00;99.90
20315;DHT22;10315;50.958;13.080;2022-07-15T04:39:53;11.50;99.90
20315;DHT22;10315;50.958;13.080;2022-07-15T04:49:56;12.30;99.90
20315;DHT22;10315;50.958;13.080;2022-07-15T05:00:16;12.90;99.90
20315;DHT22;10315;50.958;13.080;2022-07-15T05:10:19;13.00;99.90
20315;DHT22;10315;50.958;13.080;2022-07-15T05:20:20;13.30;99.90
20315;DHT22;10315;50.958;13.080;2022-07-15T05:30:24;13.80;99.90
20315;DHT22;10315;50.958;13.080;2022-07-15T05:40:25;14.10;99.90
20315;DHT22;10315;50.958;13.080;2022-07-15T05:50:28;14.20;99.90
20315;DHT22;10315;50.958;13.080;2022-07-15T06:00:30;14.40;99.90
20315;DHT22;10315;50.958;13.080;2022-07-15T06:10:33;14.40;99.90
20315;DHT22;10315;50.958;13.080;2022-07-15T06:20:35;14.60;99.90
20315;DHT22;10315;50.958;13.080;2022-07-15T06:30:38;14.60;99.90
20315;DHT22;10315;50.958;13.080;2022-07-15T06:40:39;14.70;99.90
20315;DHT22;10315;50.958;13.080;2022-07-15T06:50:43;14.80;99.90
20315;DHT22;10315;50.958;13.080;2022-07-15T07:00:45;15.50;99.90
20315;DHT22;10315;50.958;13.080;2022-07-15T07:10:48;15.80;99.90
20315;DHT22;10315;50.958;13.080;2022-07-15T07:20:49;16.20;99.90
20315;DHT22;10315;50.958;13.080;2022-07-15T07:30:52;17.10;99.90
20315;DHT22;10315;50.958;13.080;2022-07-15T07:40:55;18.40;99.90
20315;DHT22;10315;50.958;13.080;2022-07-15T07:50:58;23.80;99.90
20315;DHT22;10315;50.958;13.080;2022-07-15T08:01:00;30.80;85.40
20315;DHT22;10315;50.958;13.080;2022-07-15T08:11:18;33.20;65.30
20315;DHT22;10315;50.958;13.080;2022-07-15T08:21:20;33.80;62.30
20315;DHT22;10315;50.958;13.080;2022-07-15T08:31:23;33.20;58.90
20315;DHT22;10315;50.958;13.080;2022-07-15T08:41:25;37.90;50.50
20315;DHT22;10315;50.958;13.080;2022-07-15T08:51:28;34.70;51.70
20315;DHT22;10315;50.958;13.080;2022-07-15T09:01:33;36.80;48.60
20315;DHT22;10315;50.958;13.080;2022-07-15T09:11:37;35.70;50.10
20315;DHT22;10315;50.958;13.080;2022-07-15T09:21:41;29.30;57.90
20315;DHT22;10315;50.958;13.080;2022-07-15T09:31:44;25.90;62.10
20315;DHT22;10315;50.958;13.080;2022-07-15T09:42:15;25.70;64.90
20315;DHT22;10315;50.958;13.080;2022-07-15T09:52:19;29.90;57.90
20315;DHT22;10315;50.958;13.080;2022-07-15T10:02:22;24.50;66.90
20315;DHT22;10315;50.958;13.080;2022-07-15T10:12:26;25.20;65.90
20315;DHT22;10315;50.958;13.080;2022-07-15T10:22:42;25.00;67.30
20315;DHT22;10315;50.958;13.080;2022-07-15T10:33:16;23.80;70.30
20315;DHT22;10315;50.958;13.080;2022-07-15T10:43:18;25.60;67.90
20315;DHT22;10315;50.958;13.080;2022-07-15T10:53:23;24.50;69.20
20315;DHT22;10315;50.958;13.080;2022-07-15T11:03:25;25.20;68.40
20315;DHT22;10315;50.958;13.080;2022-07-15T11:13:33;25.70;65.40
20315;DHT22;10315;50.958;13.080;2022-07-15T11:23:35;24.50;68.10
20315;DHT22;10315;50.958;13.080;2022-07-15T11:33:39;24.70;66.80
20315;DHT22;10315;50.958;13.080;2022-07-15T11:43:42;24.30;66.00
20315;DHT22;10315;50.958;13.080;2022-07-15T11:54:03;23.40;68.90
20315;DHT22;10315;50.958;13.080;2022-07-15T12:04:04;24.30;67.30
20315;DHT22;10315;50.958;13.080;2022-07-15T12:14:11;23.60;68.50
20315;DHT22;10315;50.958;13.080;2022-07-15T12:24:14;23.40;68.90
20315;DHT22;10315;50.958;13.080;2022-07-15T12:34:18;23.60;70.00
20315;DHT22;10315;50.958;13.080;2022-07-15T12:44:21;23.60;67.50
20315;DHT22;10315;50.958;13.080;2022-07-15T12:54:40;22.80;70.30
20315;DHT22;10315;50.958;13.080;2022-07-15T13:04:41;24.30;67.10
20315;DHT22;10315;50.958;13.080;2022-07-15T13:14:44;24.20;67.40
20315;DHT22;10315;50.958;13.080;2022-07-15T13:24:56;24.40;68.00
20315;DHT22;10315;50.958;13.080;2022-07-15T13:34:59;24.70;67.30
20315;DHT22;10315;50.958;13.080;2022-07-15T13:45:02;23.50;67.90
20315;DHT22;10315;50.958;13.080;2022-07-15T13:55:06;24.50;67.20
20315;DHT22;10315;50.958;13.080;2022-07-15T14:05:10;24.60;66.90
20315;DHT22;10315;50.958;13.080;2022-07-15T14:15:13;23.70;66.20
20315;DHT22;10315;50.958;13.080;2022-07-15T14:25:16;23.50;67.50
20315;DHT22;10315;50.958;13.080;2022-07-15T14:35:31;23.30;68.30
20315;DHT22;10315;50.958;13.080;2022-07-15T14:45:32;24.10;65.60
20315;DHT22;10315;50.958;13.080;2022-07-15T14:55:36;23.80;65.60
20315;DHT22;10315;50.958;13.080;2022-07-15T15:05:37;23.50;65.70
20315;DHT22;10315;50.958;13.080;2022-07-15T15:15:40;22.50;66.40
20315;DHT22;10315;50.958;13.080;2022-07-15T15:25:42;22.70;67.50
20315;DHT22;10315;50.958;13.080;2022-07-15T15:36:03;22.90;66.20
20315;DHT22;10315;50.958;13.080;2022-07-15T15:46:05;22.70;68.10
20315;DHT22;10315;50.958;13.080;2022-07-15T15:56:08;21.90;67.10
20315;DHT22;10315;50.958;13.080;2022-07-15T16:06:09;21.20;68.80
20315;DHT22;10315;50.958;13.080;2022-07-15T16:16:12;21.00;69.60
20315;DHT22;10315;50.958;13.080;2022-07-15T16:26:14;21.10;71.40
20315;DHT22;10315;50.958;13.080;2022-07-15T16:36:17;21.70;69.10
20315;DHT22;10315;50.958;13.080;2022-07-15T16:46:18;20.90;71.30
20315;DHT22;10315;50.958;13.080;2022-07-15T16:56:21;20.50;73.00
20315;DHT22;10315;50.958;13.080;2022-07-15T17:06:23;20.50;73.00
20315;DHT22;10315;50.958;13.080;2022-07-15T17:16:26;20.30;73.30
20315;DHT22;10315;50.958;13.080;2022-07-15T17:26:28;20.00;73.10
20315;DHT22;10315;50.958;13.080;2022-07-15T17:36:31;20.10;74.90
20315;DHT22;10315;50.958;13.080;2022-07-15T17:46:33;19.90;75.00
20315;DHT22;10315;50.958;13.080;2022-07-15T17:56:37;19.40;75.80
20315;DHT22;10315;50.958;13.080;2022-07-15T18:06:38;18.50;78.80
20315;DHT22;10315;50.958;13.080;2022-07-15T18:16:42;18.20;80.20
20315;DHT22;10315;50.958;13.080;2022-07-15T18:26:43;18.00;81.20
20315;DHT22;10315;50.958;13.080;2022-07-15T18:36:46;17.60;82.30
20315;DHT22;10315;50.958;13.080;2022-07-15T18:46:48;17.20;84.90
20315;DHT22;10315;50.958;13.080;2022-07-15T18:56:51;16.80;86.20
20315;DHT22;10315;50.958;13.080;2022-07-15T19:06:52;16.30;88.80
20315;DHT22;10315;50.958;13.080;2022-07-15T19:16:55;16.10;90.00
20315;DHT22;10315;50.958;13.080;2022-07-15T19:26:57;15.80;90.30
20315;DHT22;10315;50.958;13.080;2022-07-15T19:37:00;15.40;91.40
20315;DHT22;10315;50.958;13.080;2022-07-15T19:47:02;15.10;91.80
20315;DHT22;10315;50.958;13.080;2022-07-15T19:57:05;14.70;92.40
20315;DHT22;10315;50.958;13.080;2022-07-15T20:07:06;14.70;91.70
20315;DHT22;10315;50.958;13.080;2022-07-15T20:17:09;14.80;93.70
20315;DHT22;10315;50.958;13.080;2022-07-15T20:27:11;15.10;94.70
20315;DHT22;10315;50.958;13.080;2022-07-15T20:37:14;15.00;95.90
20315;DHT22;10315;50.958;13.080;2022-07-15T20:47:16;14.60;98.10
20315;DHT22;10315;50.958;13.080;2022-07-15T20:57:19;14.20;99.40
20315;DHT22;10315;50.958;13.080;2022-07-15T21:07:22;14.20;99.90
20315;DHT22;10315;50.958;13.080;2022-07-15T21:17:25;14.20;99.90
20315;DHT22;10315;50.958;13.080;2022-07-15T21:27:27;14.00;99.90
20315;DHT22;10315;50.958;13.080;2022-07-15T21:37:30;14.20;99.90
20315;DHT22;10315;50.958;13.080;2022-07-15T21:47:32;13.70;99.90
20315;DHT22;10315;50.958;13.080;2022-07-15T21:57:48;13.10;99.90
20315;DHT22;10315;50.958;13.080;2022-07-15T22:07:50;12.90;99.90
20315;DHT22;10315;50.958;13.080;2022-07-15T22:17:53;13.10;99.90
20315;DHT22;10315;50.958;13.080;2022-07-15T22:27:54;12.70;99.90
20315;DHT22;10315;50.958;13.080;2022-07-15T22:37:57;12.30;99.90
20315;DHT22;10315;50.958;13.080;2022-07-15T22:47:59;12.20;99.90
20315;DHT22;10315;50.958;13.080;2022-07-15T22:58:04;12.50;99.90
20315;DHT22;10315;50.958;13.080;2022-07-15T23:08:05;12.30;99.90
20315;DHT22;10315;50.958;13.080;2022-07-15T23:18:09;12.00;99.90
20315;DHT22;10315;50.958;13.080;2022-07-15T23:28:10;11.70;99.90
20315;DHT22;10315;50.958;13.080;2022-07-15T23:38:13;11.80;99.90
20315;DHT22;10315;50.958;13.080;2022-07-15T23:48:15;11.80;99.90
20315;DHT22;10315;50.958;13.080;2022-07-15T23:58:18;11.50;99.90
